To NAV CANADA Home Page Login to a new session Search on AWWS site Disclaimer Vers la page française équivalente Tips FAQ What's new on the site To the Forecasts and Observations / NOTAM section To "File a Flight Plan" website Publications and other links Update of the User's profile FIC Telephone Numbers My Weather Data Folder Route Weather Data Regional Weather Data Local Weather Data To the Forecasts and Observations / NOTAM section
Request Generated 10/19/2018 at 15:27:53 UTC . Weather information available at that time is displayed.

METAR/TAF

FORT CHIPEWYAN/AB    (show WxCam)

METAR CYPY 191500Z AUTO 31004KT 260V340 9SM CLR M05/M08 A3034 RMK SLP290=
METAR CYPY 191400Z AUTO 29003KT 9SM CLR M06/M09 A3032 RMK SLP285=
METAR CYPY 191300Z AUTO 30004KT 9SM CLR M05/M08 A3030 RMK SLP276=

TAF CYPY 191138Z 1912/1924 30008KT P6SM SCT010 TEMPO 1912/1918 4SM BR
BKN010
FM191800 32010KT P6SM FEW020
RMK FCST BASED ON AUTO OBS. NXT FCST BY 191800Z=
Your time UTC time
Weather data provided by Environment Canada and NAV CANADA